CONNECT WITH FLYNQY PILOT TRAINING

Newquay Five Day Forecast

This Weather Widget is provided by the Met Office

EGHQ TAF and METAR

METAR

EGHQ 280950Z 29014KT 9999 SCT015 14/09 Q1010

TAF

TAF EGHQ 280804Z 2809/2818 29014KT 9999 SCT020 PROB40 TEMPO 2809/2818 29017G27KT